Time;durP1;ratioP1;P1;durP2;ratioP2;P2;SDS_P1;SDS_P2;PMS_P1;PMS_P2;Temp;Humidity;BMP_temperature;BMP_pressure;BME280_temperature;BME280_humidity;BME280_pressure;Samples;Min_cycle;Max_cycle;Signal;HPM_P1;HPM_P2
2023/11/26 00:01:29;;;;;;;0.20;0.00;;;;;;;;;;5014954;28;20691;-82
2023/11/26 00:03:55;;;;;;;0.20;0.10;;;;;;;;;;4984620;28;20132;-84
2023/11/26 00:06:21;;;;;;;0.20;0.10;;;;;;;;;;4986084;28;20352;-83
2023/11/26 00:08:47;;;;;;;0.20;0.10;;;;;;;;;;4981405;28;20030;-83
2023/11/26 00:11:13;;;;;;;0.20;0.00;;;;;;;;;;4983927;28;20044;-84
2023/11/26 00:13:40;;;;;;;0.20;0.00;;;;;;;;;;4981386;28;20033;-84
2023/11/26 00:16:06;;;;;;;0.47;0.30;;;;;;;;;;4981644;28;20121;-83
2023/11/26 00:18:32;;;;;;;0.20;0.03;;;;;;;;;;5005866;28;20069;-83
2023/11/26 00:20:58;;;;;;;0.20;0.10;;;;;;;;;;4989725;28;20077;-83
2023/11/26 00:23:24;;;;;;;0.20;0.00;;;;;;;;;;4965885;28;20034;-83
2023/11/26 00:25:50;;;;;;;0.20;0.10;;;;;;;;;;4986475;28;20088;-83
2023/11/26 00:28:16;;;;;;;0.20;0.10;;;;;;;;;;4981759;28;20069;-83
2023/11/26 00:30:42;;;;;;;0.20;0.13;;;;;;;;;;4981011;28;20302;-83
2023/11/26 00:33:08;;;;;;;0.20;0.10;;;;;;;;;;5021256;28;20453;-83
2023/11/26 00:35:34;;;;;;;0.20;0.05;;;;;;;;;;4984827;28;20046;-83
2023/11/26 00:38:00;;;;;;;0.20;0.00;;;;;;;;;;4991149;28;20045;-84
2023/11/26 00:40:26;;;;;;;0.20;0.00;;;;;;;;;;4989483;28;20064;-83
2023/11/26 00:42:53;;;;;;;0.20;0.00;;;;;;;;;;4984011;28;20034;-83
2023/11/26 00:45:19;;;;;;;0.20;0.10;;;;;;;;;;4988346;28;20117;-83
2023/11/26 00:47:45;;;;;;;0.20;0.10;;;;;;;;;;4979181;28;20129;-83
2023/11/26 00:50:12;;;;;;;0.20;0.10;;;;;;;;;;4987212;28;20050;-83
2023/11/26 00:52:39;;;;;;;0.20;0.10;;;;;;;;;;4984179;28;20042;-83
2023/11/26 00:55:06;;;;;;;0.20;0.10;;;;;;;;;;4994039;28;20073;-83
2023/11/26 00:57:32;;;;;;;0.20;0.10;;;;;;;;;;4994078;28;20453;-83
2023/11/26 00:59:58;;;;;;;0.20;0.10;;;;;;;;;;4985888;28;20449;-83
2023/11/26 01:02:24;;;;;;;0.20;0.00;;;;;;;;;;5005184;28;20038;-83
2023/11/26 01:04:50;;;;;;;0.20;0.03;;;;;;;;;;5022972;28;20037;-84
2023/11/26 01:07:17;;;;;;;0.20;0.00;;;;;;;;;;4991335;28;20037;-83
2023/11/26 01:09:43;;;;;;;0.20;0.10;;;;;;;;;;4992053;28;20104;-83
2023/11/26 01:12:09;;;;;;;0.20;0.10;;;;;;;;;;4970803;28;20046;-84
2023/11/26 01:14:35;;;;;;;0.20;0.10;;;;;;;;;;5019760;28;20076;-84
2023/11/26 01:17:01;;;;;;;0.20;0.10;;;;;;;;;;4995782;28;20088;-84
2023/11/26 01:19:27;;;;;;;0.20;0.10;;;;;;;;;;4981245;28;20249;-83
2023/11/26 01:21:54;;;;;;;0.20;0.10;;;;;;;;;;4984574;28;20465;-84
2023/11/26 01:24:20;;;;;;;1.13;0.08;;;;;;;;;;4982969;28;20120;-84
2023/11/26 01:26:46;;;;;;;0.20;0.10;;;;;;;;;;4985596;28;20038;-84
2023/11/26 01:29:12;;;;;;;0.20;0.10;;;;;;;;;;4998019;28;20046;-84
2023/11/26 01:31:38;;;;;;;0.20;0.10;;;;;;;;;;4987619;28;20045;-84
2023/11/26 01:34:04;;;;;;;0.20;0.10;;;;;;;;;;4996821;28;20046;-83
2023/11/26 01:36:30;;;;;;;0.20;0.10;;;;;;;;;;4974430;28;20092;-83
2023/11/26 01:38:56;;;;;;;0.20;0.10;;;;;;;;;;4982851;28;20490;-84
2023/11/26 01:41:22;;;;;;;0.20;0.00;;;;;;;;;;4993681;28;20037;-84
2023/11/26 01:43:49;;;;;;;0.20;0.10;;;;;;;;;;4990594;28;20037;-84
2023/11/26 01:46:15;;;;;;;0.25;0.25;;;;;;;;;;5007680;28;20045;-84
2023/11/26 01:48:42;;;;;;;0.20;0.10;;;;;;;;;;4976132;28;20034;-84
2023/11/26 01:51:09;;;;;;;0.20;0.10;;;;;;;;;;4985624;28;20054;-84
2023/11/26 01:53:37;;;;;;;0.20;0.08;;;;;;;;;;4992929;28;20037;-83
2023/11/26 01:56:03;;;;;;;0.20;0.00;;;;;;;;;;4997282;28;20046;-83
2023/11/26 01:58:30;;;;;;;0.20;0.10;;;;;;;;;;4990516;28;20487;-83
2023/11/26 02:00:56;;;;;;;0.20;0.10;;;;;;;;;;4986157;28;20555;-84
2023/11/26 02:03:22;;;;;;;0.20;0.00;;;;;;;;;;4996867;28;20398;-84
2023/11/26 02:05:48;;;;;;;0.20;0.00;;;;;;;;;;4991334;28;20038;-83
2023/11/26 02:08:15;;;;;;;0.20;0.10;;;;;;;;;;5010105;28;20101;-83
2023/11/26 02:10:41;;;;;;;0.20;0.00;;;;;;;;;;4988166;28;20125;-84
2023/11/26 02:13:08;;;;;;;0.20;0.10;;;;;;;;;;4977759;28;20045;-83
2023/11/26 02:15:34;;;;;;;0.20;0.10;;;;;;;;;;4990940;28;20121;-84
2023/11/26 02:18:01;;;;;;;0.20;0.03;;;;;;;;;;4985062;28;20116;-84
2023/11/26 02:20:27;;;;;;;0.20;0.10;;;;;;;;;;5004510;28;20212;-84
2023/11/26 02:22:54;;;;;;;0.20;0.10;;;;;;;;;;4995111;28;20501;-84
2023/11/26 02:25:29;;;;;;;0.20;0.10;;;;;;;;;;5003616;28;20038;-84
2023/11/26 02:27:55;;;;;;;0.20;0.10;;;;;;;;;;5006522;28;20497;-85
2023/11/26 02:30:21;;;;;;;0.20;0.05;;;;;;;;;;4983293;28;20540;-85
2023/11/26 02:32:48;;;;;;;0.20;0.10;;;;;;;;;;4987609;28;20041;-85
2023/11/26 02:35:14;;;;;;;0.20;0.00;;;;;;;;;;4976074;28;20033;-84
2023/11/26 02:37:40;;;;;;;0.20;0.00;;;;;;;;;;4984119;28;20511;-86
2023/11/26 02:40:07;;;;;;;0.73;0.22;;;;;;;;;;4989164;28;20077;-85
2023/11/26 02:42:33;;;;;;;0.20;0.00;;;;;;;;;;4980919;28;20149;-85
2023/11/26 02:44:59;;;;;;;0.20;0.10;;;;;;;;;;4991986;28;20064;-85
2023/11/26 02:47:29;;;;;;;0.20;0.10;;;;;;;;;;4971572;28;20591;-84
2023/11/26 02:49:55;;;;;;;0.20;0.00;;;;;;;;;;4991601;28;20041;-83
2023/11/26 02:52:21;;;;;;;0.20;0.10;;;;;;;;;;5013890;28;20037;-85
2023/11/26 02:54:47;;;;;;;0.20;0.00;;;;;;;;;;4983741;28;20095;-84
2023/11/26 02:57:13;;;;;;;0.40;0.20;;;;;;;;;;4989787;28;20591;-84
2023/11/26 02:59:41;;;;;;;0.20;0.10;;;;;;;;;;4991279;28;21346;-83
2023/11/26 03:02:09;;;;;;;0.20;0.10;;;;;;;;;;4988928;28;20035;-83
2023/11/26 03:04:37;;;;;;;0.20;0.05;;;;;;;;;;5000250;28;20044;-83
2023/11/26 03:07:03;;;;;;;0.20;0.10;;;;;;;;;;4993177;28;20111;-82
2023/11/26 03:14:53;;;;;;;0.20;0.10;;;;;;;;;;4984757;28;20137;-82
2023/11/26 03:17:20;;;;;;;0.20;0.00;;;;;;;;;;4996274;28;20665;-83
2023/11/26 03:19:47;;;;;;;0.20;0.10;;;;;;;;;;4993033;28;20072;-83
2023/11/26 03:22:15;;;;;;;0.20;0.00;;;;;;;;;;4997698;28;20601;-83
2023/11/26 03:24:42;;;;;;;0.20;0.10;;;;;;;;;;4993137;28;20670;-83
2023/11/26 03:27:08;;;;;;;0.20;0.00;;;;;;;;;;4992143;28;20066;-82
2023/11/26 03:29:34;;;;;;;0.20;0.10;;;;;;;;;;5008058;28;20042;-82
2023/11/26 03:32:00;;;;;;;0.20;0.00;;;;;;;;;;5001939;28;20132;-83
2023/11/26 03:34:29;;;;;;;0.20;0.10;;;;;;;;;;4996576;28;20509;-82
2023/11/26 03:36:56;;;;;;;0.20;0.05;;;;;;;;;;4996174;28;20619;-83
2023/11/26 03:39:22;;;;;;;0.20;0.10;;;;;;;;;;5000206;28;20491;-83
2023/11/26 03:41:49;;;;;;;0.20;0.00;;;;;;;;;;4997983;28;20047;-81
2023/11/26 03:44:15;;;;;;;0.20;0.08;;;;;;;;;;5028861;28;20044;-82
2023/11/26 03:46:42;;;;;;;0.20;0.10;;;;;;;;;;4991821;28;20045;-82
2023/11/26 03:49:08;;;;;;;0.20;0.10;;;;;;;;;;4994580;28;20050;-80
2023/11/26 03:51:35;;;;;;;0.52;0.52;;;;;;;;;;5003166;28;20033;-82
2023/11/26 03:54:01;;;;;;;0.20;0.10;;;;;;;;;;4992920;28;20415;-82
2023/11/26 03:56:27;;;;;;;0.20;0.10;;;;;;;;;;4997167;28;20411;-82
2023/11/26 03:58:53;;;;;;;0.20;0.08;;;;;;;;;;5015955;28;20038;-80
2023/11/26 04:01:19;;;;;;;0.20;0.10;;;;;;;;;;4990702;28;20040;-82
2023/11/26 04:03:45;;;;;;;0.20;0.00;;;;;;;;;;4999036;28;20042;-82
2023/11/26 04:06:11;;;;;;;0.20;0.10;;;;;;;;;;5018169;28;20064;-81
2023/11/26 04:08:37;;;;;;;0.20;0.10;;;;;;;;;;4998935;28;20484;-81
2023/11/26 04:11:03;;;;;;;0.20;0.00;;;;;;;;;;4996291;28;20306;-78
2023/11/26 04:13:32;;;;;;;0.20;0.10;;;;;;;;;;4992965;28;20052;-81
2023/11/26 04:15:58;;;;;;;0.20;0.00;;;;;;;;;;4995693;28;20438;-81
2023/11/26 04:18:25;;;;;;;0.20;0.00;;;;;;;;;;5002859;28;20140;-80
2023/11/26 04:20:51;;;;;;;0.20;0.10;;;;;;;;;;4993208;28;20442;-81
2023/11/26 04:23:18;;;;;;;0.20;0.10;;;;;;;;;;4998645;28;20042;-82
2023/11/26 04:25:44;;;;;;;0.20;0.00;;;;;;;;;;4998266;28;20068;-81
2023/11/26 04:28:11;;;;;;;0.20;0.00;;;;;;;;;;4990099;28;20045;-82
2023/11/26 04:30:37;;;;;;;0.20;0.10;;;;;;;;;;5016714;28;20073;-82
2023/11/26 04:33:03;;;;;;;0.20;0.00;;;;;;;;;;5007889;28;20564;-81
2023/11/26 04:35:29;;;;;;;0.20;0.08;;;;;;;;;;5000143;28;20066;-81
2023/11/26 04:37:55;;;;;;;0.20;0.10;;;;;;;;;;5005719;28;20084;-80
2023/11/26 04:40:21;;;;;;;0.20;0.10;;;;;;;;;;5003700;28;20242;-80
2023/11/26 04:42:47;;;;;;;0.20;0.10;;;;;;;;;;4994821;28;20064;-81
2023/11/26 04:45:14;;;;;;;0.20;0.00;;;;;;;;;;5024562;28;20323;-82
2023/11/26 04:47:40;;;;;;;0.20;0.10;;;;;;;;;;5028964;28;20086;-82
2023/11/26 04:50:06;;;;;;;0.20;0.10;;;;;;;;;;5009103;28;20042;-82
2023/11/26 04:52:33;;;;;;;0.20;0.03;;;;;;;;;;4988142;28;20069;-80
2023/11/26 04:54:59;;;;;;;0.20;0.10;;;;;;;;;;5026092;28;20101;-80
2023/11/26 04:57:25;;;;;;;0.20;0.10;;;;;;;;;;5027110;28;20049;-81
2023/11/26 04:59:52;;;;;;;0.20;0.10;;;;;;;;;;5023520;28;20034;-80
2023/11/26 05:02:18;;;;;;;0.20;0.00;;;;;;;;;;5008883;28;20076;-80
2023/11/26 05:04:45;;;;;;;0.20;0.03;;;;;;;;;;5028389;28;20058;-83
2023/11/26 05:07:11;;;;;;;0.20;0.00;;;;;;;;;;5028260;28;20128;-82
2023/11/26 05:09:37;;;;;;;0.20;0.00;;;;;;;;;;5029029;28;20045;-82
2023/11/26 05:12:03;;;;;;;0.20;0.10;;;;;;;;;;5003621;28;20065;-81
2023/11/26 05:14:29;;;;;;;0.20;0.10;;;;;;;;;;4986935;28;20041;-80
2023/11/26 05:16:55;;;;;;;0.20;0.00;;;;;;;;;;4984593;28;20113;-81
2023/11/26 05:19:21;;;;;;;0.20;0.10;;;;;;;;;;5019519;28;20046;-81
2023/11/26 05:21:47;;;;;;;0.20;0.10;;;;;;;;;;5010639;28;20287;-82
2023/11/26 05:24:16;;;;;;;0.20;0.05;;;;;;;;;;5016432;28;20042;-79
2023/11/26 05:26:42;;;;;;;0.20;0.10;;;;;;;;;;5013281;28;20087;-81
2023/11/26 05:29:08;;;;;;;0.20;0.10;;;;;;;;;;5000779;28;20045;-80
2023/11/26 05:31:34;;;;;;;0.20;0.10;;;;;;;;;;5003810;28;20437;-81
2023/11/26 05:34:00;;;;;;;0.20;0.10;;;;;;;;;;4984910;28;20064;-78
2023/11/26 05:36:26;;;;;;;0.20;0.10;;;;;;;;;;4998959;28;20046;-80
2023/11/26 05:38:52;;;;;;;0.45;0.43;;;;;;;;;;4996210;28;20048;-81
2023/11/26 05:41:18;;;;;;;0.20;0.10;;;;;;;;;;4986245;28;20045;-81
2023/11/26 05:43:45;;;;;;;0.20;0.10;;;;;;;;;;5014794;28;20063;-81
2023/11/26 05:46:11;;;;;;;0.20;0.10;;;;;;;;;;5017824;28;20121;-80
2023/11/26 05:48:37;;;;;;;0.20;0.10;;;;;;;;;;5000613;28;20064;-81
2023/11/26 05:51:03;;;;;;;0.20;0.10;;;;;;;;;;5011655;28;20559;-81
2023/11/26 05:53:29;;;;;;;0.20;0.00;;;;;;;;;;5032035;28;20116;-82
2023/11/26 05:55:55;;;;;;;0.20;0.10;;;;;;;;;;4999407;28;20257;-81
2023/11/26 05:58:21;;;;;;;0.20;0.00;;;;;;;;;;4997927;28;20559;-81
2023/11/26 06:00:47;;;;;;;0.20;0.10;;;;;;;;;;4993182;28;20073;-83
2023/11/26 06:03:13;;;;;;;0.20;0.10;;;;;;;;;;4994941;28;20506;-81
2023/11/26 06:05:39;;;;;;;0.20;0.10;;;;;;;;;;4997090;28;20046;-81
2023/11/26 06:08:05;;;;;;;0.20;0.10;;;;;;;;;;5013309;28;20129;-82
2023/11/26 06:10:32;;;;;;;0.20;0.10;;;;;;;;;;5002750;28;20092;-81
2023/11/26 06:12:58;;;;;;;0.20;0.00;;;;;;;;;;4992837;28;20044;-81
2023/11/26 06:15:25;;;;;;;0.20;0.10;;;;;;;;;;4993127;28;20057;-83
2023/11/26 06:17:51;;;;;;;0.20;0.00;;;;;;;;;;4991690;28;20060;-81
2023/11/26 06:20:17;;;;;;;0.20;0.10;;;;;;;;;;5022874;28;20494;-79
2023/11/26 06:22:43;;;;;;;0.20;0.10;;;;;;;;;;4992368;28;20091;-79
2023/11/26 06:25:10;;;;;;;0.20;0.00;;;;;;;;;;5003448;28;20052;-81
2023/11/26 06:27:37;;;;;;;0.20;0.10;;;;;;;;;;4967354;28;20766;-80
2023/11/26 06:30:03;;;;;;;0.20;0.10;;;;;;;;;;4993293;28;20052;-81
2023/11/26 06:32:29;;;;;;;0.20;0.10;;;;;;;;;;4987139;28;20050;-80
2023/11/26 06:34:55;;;;;;;0.20;0.00;;;;;;;;;;4991795;28;20053;-80
2023/11/26 06:37:21;;;;;;;0.40;0.20;;;;;;;;;;4971283;28;20042;-79
2023/11/26 06:39:47;;;;;;;0.20;0.10;;;;;;;;;;4988870;28;20053;-80
2023/11/26 06:42:14;;;;;;;0.20;0.03;;;;;;;;;;4986229;28;20321;-81
2023/11/26 06:44:40;;;;;;;0.20;0.10;;;;;;;;;;4989817;28;20053;-80
2023/11/26 06:47:06;;;;;;;0.20;0.00;;;;;;;;;;4977826;28;20030;-78
2023/11/26 06:49:32;;;;;;;0.20;0.00;;;;;;;;;;4993216;28;20049;-81
2023/11/26 06:51:58;;;;;;;0.20;0.10;;;;;;;;;;4993356;28;20037;-81
2023/11/26 06:54:24;;;;;;;0.20;0.00;;;;;;;;;;4973375;28;20490;-81
2023/11/26 06:56:50;;;;;;;0.20;0.10;;;;;;;;;;4989490;28;20124;-81
2023/11/26 06:59:16;;;;;;;0.20;0.05;;;;;;;;;;4996752;28;20081;-81
2023/11/26 07:01:42;;;;;;;0.20;0.10;;;;;;;;;;4972100;28;20056;-81
2023/11/26 07:04:10;;;;;;;0.20;0.10;;;;;;;;;;4993547;28;20414;-81
2023/11/26 07:06:36;;;;;;;0.20;0.10;;;;;;;;;;4980406;28;20037;-80
2023/11/26 07:09:06;;;;;;;0.20;0.03;;;;;;;;;;4993912;28;20045;-81
2023/11/26 07:11:32;;;;;;;0.20;0.05;;;;;;;;;;4989084;28;20053;-80
2023/11/26 07:13:58;;;;;;;0.20;0.00;;;;;;;;;;4992293;28;20038;-80
2023/11/26 07:16:24;;;;;;;0.20;0.10;;;;;;;;;;4996355;28;20117;-80
2023/11/26 07:18:50;;;;;;;0.20;0.10;;;;;;;;;;4988388;28;20525;-81
2023/11/26 07:21:16;;;;;;;0.20;0.10;;;;;;;;;;4993959;28;20042;-82
2023/11/26 07:23:42;;;;;;;0.20;0.00;;;;;;;;;;5000255;28;20101;-81
2023/11/26 07:26:21;;;;;;;0.20;0.00;;;;;;;;;;5003257;28;20041;-80
2023/11/26 07:28:50;;;;;;;0.20;0.10;;;;;;;;;;5007228;28;20033;-78
2023/11/26 07:31:17;;;;;;;0.20;0.10;;;;;;;;;;5004299;28;20057;-79
2023/11/26 07:33:45;;;;;;;0.20;0.10;;;;;;;;;;5009051;28;20046;-78
2023/11/26 07:36:14;;;;;;;0.20;0.00;;;;;;;;;;5000931;28;20046;-80
2023/11/26 07:38:40;;;;;;;0.65;0.65;;;;;;;;;;4991807;28;20541;-79
2023/11/26 07:41:07;;;;;;;0.20;0.00;;;;;;;;;;5005776;28;20065;-79
2023/11/26 07:43:33;;;;;;;0.20;0.10;;;;;;;;;;5000337;28;20042;-80
2023/11/26 07:46:01;;;;;;;0.20;0.10;;;;;;;;;;5003185;28;20068;-80
2023/11/26 07:48:27;;;;;;;0.20;0.10;;;;;;;;;;4993331;28;20049;-80
2023/11/26 07:50:53;;;;;;;0.20;0.00;;;;;;;;;;4999264;28;20046;-80
2023/11/26 07:53:19;;;;;;;0.20;0.10;;;;;;;;;;5018116;28;20038;-80
2023/11/26 07:55:45;;;;;;;0.20;0.00;;;;;;;;;;5004452;28;20053;-80
2023/11/26 07:58:11;;;;;;;0.20;0.00;;;;;;;;;;4990422;28;20069;-78
2023/11/26 08:00:37;;;;;;;0.20;0.10;;;;;;;;;;5000626;28;20065;-81
2023/11/26 08:03:03;;;;;;;0.20;0.00;;;;;;;;;;5004318;28;20046;-80
2023/11/26 08:05:30;;;;;;;0.40;0.40;;;;;;;;;;5007663;28;20033;-80
2023/11/26 08:07:57;;;;;;;0.20;0.10;;;;;;;;;;4985557;28;20041;-79
2023/11/26 08:10:26;;;;;;;0.20;0.00;;;;;;;;;;5026042;28;20108;-80
2023/11/26 08:12:52;;;;;;;0.20;0.00;;;;;;;;;;5010959;28;20045;-80
2023/11/26 08:15:20;;;;;;;0.20;0.05;;;;;;;;;;4983511;28;20041;-81
2023/11/26 08:17:50;;;;;;;0.20;0.10;;;;;;;;;;4996278;28;20104;-78
2023/11/26 08:20:17;;;;;;;0.20;0.10;;;;;;;;;;5005589;28;20034;-81
2023/11/26 08:22:46;;;;;;;0.20;0.00;;;;;;;;;;4995929;28;20100;-82
2023/11/26 08:25:23;;;;;;;0.20;0.10;;;;;;;;;;5004074;28;20042;-80
2023/11/26 08:27:51;;;;;;;0.20;0.10;;;;;;;;;;4992445;28;20057;-79
2023/11/26 08:30:36;;;;;;;0.20;0.10;;;;;;;;;;4993221;28;20069;-77
2023/11/26 08:33:02;;;;;;;0.20;0.10;;;;;;;;;;5005207;28;20034;-78
2023/11/26 08:35:32;;;;;;;0.20;0.10;;;;;;;;;;4995471;28;20041;-80
2023/11/26 08:38:00;;;;;;;0.20;0.00;;;;;;;;;;4991929;28;20522;-77
2023/11/26 08:40:26;;;;;;;0.20;0.00;;;;;;;;;;4992520;28;20073;-80
2023/11/26 08:42:56;;;;;;;0.20;0.00;;;;;;;;;;4993822;28;20049;-80
2023/11/26 08:45:22;;;;;;;0.20;0.00;;;;;;;;;;5010943;28;20064;-79
2023/11/26 08:47:48;;;;;;;0.20;0.10;;;;;;;;;;4993678;28;20064;-79
2023/11/26 08:50:14;;;;;;;0.20;0.08;;;;;;;;;;4995122;28;20034;-80
2023/11/26 08:52:40;;;;;;;0.20;0.00;;;;;;;;;;4988812;28;20487;-79
2023/11/26 08:55:09;;;;;;;0.20;0.10;;;;;;;;;;5008723;28;20038;-80
2023/11/26 08:57:38;;;;;;;0.20;0.10;;;;;;;;;;4992401;28;20049;-79
2023/11/26 09:00:09;;;;;;;0.20;0.10;;;;;;;;;;5004881;28;20038;-80
2023/11/26 09:02:36;;;;;;;0.20;0.00;;;;;;;;;;4990638;28;20052;-80
2023/11/26 09:05:03;;;;;;;0.20;0.10;;;;;;;;;;5008629;28;20049;-79
2023/11/26 09:07:29;;;;;;;0.20;0.10;;;;;;;;;;4972759;28;20038;-81
2023/11/26 09:09:55;;;;;;;0.20;0.10;;;;;;;;;;5007114;28;20053;-78
2023/11/26 09:12:22;;;;;;;0.20;0.10;;;;;;;;;;4973024;28;20041;-80
2023/11/26 09:14:49;;;;;;;0.20;0.10;;;;;;;;;;4986202;28;20059;-80
2023/11/26 09:17:15;;;;;;;0.20;0.00;;;;;;;;;;5008787;28;20057;-81
2023/11/26 09:19:41;;;;;;;0.20;0.10;;;;;;;;;;4991582;28;20122;-81
2023/11/26 09:22:08;;;;;;;0.20;0.10;;;;;;;;;;5024469;28;20446;-79
2023/11/26 09:24:35;;;;;;;0.20;0.10;;;;;;;;;;4996206;28;20046;-82
2023/11/26 09:27:01;;;;;;;0.20;0.00;;;;;;;;;;5001274;28;20121;-78
2023/11/26 09:29:27;;;;;;;0.20;0.10;;;;;;;;;;5001484;28;20069;-78
2023/11/26 09:31:53;;;;;;;0.20;0.10;;;;;;;;;;4996404;28;20038;-79
2023/11/26 09:34:19;;;;;;;0.20;0.10;;;;;;;;;;5013851;28;20612;-79
2023/11/26 09:36:45;;;;;;;0.20;0.00;;;;;;;;;;4979176;28;20129;-79
2023/11/26 09:39:12;;;;;;;0.20;0.00;;;;;;;;;;4997979;28;20042;-80
2023/11/26 09:41:38;;;;;;;0.20;0.00;;;;;;;;;;4987434;28;20058;-79
2023/11/26 09:44:07;;;;;;;0.20;0.10;;;;;;;;;;5000021;28;20038;-82
2023/11/26 09:46:34;;;;;;;0.20;0.10;;;;;;;;;;4995520;28;20053;-82
2023/11/26 09:49:02;;;;;;;0.20;0.10;;;;;;;;;;5038667;23;20044;-87
2023/11/26 09:51:48;;;;;;;0.20;0.10;;;;;;;;;;4988893;28;20054;-87
2023/11/26 09:54:32;;;;;;;0.20;0.00;;;;;;;;;;4987285;28;20057;-88
2023/11/26 09:57:09;;;;;;;0.20;0.00;;;;;;;;;;4988703;28;20076;-86
2023/11/26 09:59:35;;;;;;;0.20;0.10;;;;;;;;;;4963728;28;20547;-86
2023/11/26 10:02:02;;;;;;;0.20;0.10;;;;;;;;;;4951881;28;20035;-86
2023/11/26 10:04:56;;;;;;;0.20;0.10;;;;;;;;;;4952434;28;20043;-88
2023/11/26 10:07:44;;;;;;;0.20;0.03;;;;;;;;;;4953070;28;20046;-86
2023/11/26 10:10:16;;;;;;;0.20;0.00;;;;;;;;;;4952960;28;20054;-87
2023/11/26 10:13:13;;;;;;;0.20;0.10;;;;;;;;;;4953200;28;20042;-89
2023/11/26 10:16:16;;;;;;;0.20;0.10;;;;;;;;;;4949433;28;20055;-86
2023/11/26 10:19:12;;;;;;;0.20;0.10;;;;;;;;;;4973274;28;20116;-91
2023/11/26 10:25:21;;;;;;;0.20;0.00;;;;;;;;;;4965492;28;20142;-84
2023/11/26 10:28:06;;;;;;;;;;;;;;;;;;;;;
2023/11/26 10:31:12;;;;;;;0.20;0.10;;;;;;;;;;4919209;29;20126;-85
2023/11/26 10:33:38;;;;;;;0.20;0.10;;;;;;;;;;4942871;28;20038;-86
2023/11/26 10:36:33;;;;;;;;;;;;;;;;;;;;;
2023/11/26 10:39:43;;;;;;;;;;;;;;;;;;;;;
2023/11/26 10:42:19;;;;;;;0.20;0.10;;;;;;;;;;4969457;28;20039;-88
2023/11/26 10:44:56;;;;;;;;;;;;;;;;;;4951609;28;20046;-85
2023/11/26 10:48:03;;;;;;;0.20;0.10;;;;;;;;;;4970716;28;19918;-87
2023/11/26 10:50:29;;;;;;;0.20;0.10;;;;;;;;;;4893494;28;20600;-86
2023/11/26 10:53:07;;;;;;;0.20;0.10;;;;;;;;;;4971620;28;20046;-85
2023/11/26 10:55:37;;;;;;;0.20;0.00;;;;;;;;;;4956959;28;20027;-86
2023/11/26 10:58:17;;;;;;;0.20;0.10;;;;;;;;;;4956677;28;20035;-89
2023/11/26 11:04:03;;;;;;;0.32;0.30;;;;;;;;;;4953781;28;20232;-85
2023/11/26 11:09:33;;;;;;;0.20;0.00;;;;;;;;;;4969622;28;20069;-85
2023/11/26 11:12:07;;;;;;;0.20;0.00;;;;;;;;;;4953536;28;20041;-85
2023/11/26 11:14:40;;;;;;;0.20;0.00;;;;;;;;;;4965422;28;20431;-86
2023/11/26 11:20:50;;;;;;;0.20;0.00;;;;;;;;;;4961802;28;20459;-85
2023/11/26 11:23:34;;;;;;;0.20;0.10;;;;;;;;;;4970594;28;20101;-89
2023/11/26 11:26:03;;;;;;;0.20;0.00;;;;;;;;;;4947978;28;20122;-87
2023/11/26 11:29:04;;;;;;;0.20;0.00;;;;;;;;;;4943953;28;20055;-85
2023/11/26 11:35:29;;;;;;;0.20;0.00;;;;;;;;;;4961598;28;20046;-88
2023/11/26 11:38:24;;;;;;;0.20;0.10;;;;;;;;;;4964304;28;20053;-87
2023/11/26 11:41:18;;;;;;;0.20;0.10;;;;;;;;;;4967368;28;20084;-87
2023/11/26 11:43:44;;;;;;;0.20;0.10;;;;;;;;;;4961894;28;20183;-86
2023/11/26 11:46:28;;;;;;;0.20;0.10;;;;;;;;;;4968845;28;20050;-86
2023/11/26 11:49:35;;;;;;;0.20;0.03;;;;;;;;;;4951501;28;20098;-90
2023/11/26 11:52:10;;;;;;;0.20;0.10;;;;;;;;;;4870589;29;20067;-86
2023/11/26 11:54:59;;;;;;;0.20;0.10;;;;;;;;;;4906545;28;20054;-87
2023/11/26 11:57:27;;;;;;;0.20;0.00;;;;;;;;;;4949682;28;20042;-87
2023/11/26 11:59:55;;;;;;;0.20;0.03;;;;;;;;;;4950949;28;20038;-87
2023/11/26 12:02:24;;;;;;;0.20;0.10;;;;;;;;;;4944110;28;20094;-85
2023/11/26 12:04:51;;;;;;;0.20;0.00;;;;;;;;;;4948336;28;20546;-85
2023/11/26 12:07:18;;;;;;;0.20;0.00;;;;;;;;;;4979847;28;20046;-84
2023/11/26 12:09:44;;;;;;;0.20;0.10;;;;;;;;;;4952685;28;20042;-85
2023/11/26 12:12:10;;;;;;;0.20;0.00;;;;;;;;;;4950840;28;20043;-86
2023/11/26 12:14:37;;;;;;;0.20;0.00;;;;;;;;;;4954447;28;20129;-85
2023/11/26 12:17:07;;;;;;;0.20;0.10;;;;;;;;;;4961773;28;20636;-85
2023/11/26 12:19:37;;;;;;;0.20;0.00;;;;;;;;;;4947313;28;20047;-85
2023/11/26 12:22:06;;;;;;;0.20;0.10;;;;;;;;;;4943621;28;20043;-86
2023/11/26 12:24:32;;;;;;;0.20;0.10;;;;;;;;;;4966356;28;20062;-86
2023/11/26 12:26:59;;;;;;;0.20;0.08;;;;;;;;;;4950858;28;20070;-86
2023/11/26 12:29:28;;;;;;;0.20;0.10;;;;;;;;;;4963857;28;20038;-85
2023/11/26 12:31:55;;;;;;;0.20;0.10;;;;;;;;;;4953395;28;20035;-84
2023/11/26 12:34:22;;;;;;;0.20;0.03;;;;;;;;;;4961520;28;20054;-85
2023/11/26 12:36:49;;;;;;;0.20;0.10;;;;;;;;;;4947473;28;20038;-86
2023/11/26 12:39:17;;;;;;;0.20;0.00;;;;;;;;;;4963562;28;20044;-86
2023/11/26 12:41:44;;;;;;;0.20;0.00;;;;;;;;;;4953638;28;20290;-85
2023/11/26 12:44:11;;;;;;;0.20;0.03;;;;;;;;;;4950637;28;20053;-84
2023/11/26 12:46:38;;;;;;;0.20;0.00;;;;;;;;;;4964887;28;20042;-85
2023/11/26 12:49:13;;;;;;;0.20;0.10;;;;;;;;;;4980251;28;20613;-83
2023/11/26 12:51:39;;;;;;;0.20;0.00;;;;;;;;;;4970108;28;20511;-84
2023/11/26 12:54:05;;;;;;;0.20;0.00;;;;;;;;;;4948544;28;20039;-85
2023/11/26 12:56:31;;;;;;;0.20;0.00;;;;;;;;;;4957233;28;20054;-86
2023/11/26 12:59:00;;;;;;;0.20;0.00;;;;;;;;;;4955505;28;20047;-85
2023/11/26 13:01:27;;;;;;;0.20;0.00;;;;;;;;;;4963952;28;20119;-85
2023/11/26 13:03:53;;;;;;;0.20;0.10;;;;;;;;;;4959099;28;20046;-85
2023/11/26 13:06:19;;;;;;;0.20;0.03;;;;;;;;;;4971552;28;20034;-85
2023/11/26 13:08:45;;;;;;;0.20;0.00;;;;;;;;;;4956214;28;20039;-85
2023/11/26 13:11:20;;;;;;;0.20;0.10;;;;;;;;;;4974377;28;20049;-85
2023/11/26 13:13:49;;;;;;;0.20;0.10;;;;;;;;;;4951129;28;20054;-85
2023/11/26 13:16:16;;;;;;;0.20;0.00;;;;;;;;;;4951319;28;20050;-85
2023/11/26 13:18:42;;;;;;;0.20;0.10;;;;;;;;;;4965161;28;20121;-84
2023/11/26 13:21:10;;;;;;;0.20;0.10;;;;;;;;;;4973168;28;20523;-85
2023/11/26 13:23:36;;;;;;;0.20;0.10;;;;;;;;;;4951616;28;20074;-84
2023/11/26 13:26:02;;;;;;;0.20;0.00;;;;;;;;;;4955071;28;20066;-84
2023/11/26 13:28:29;;;;;;;0.20;0.10;;;;;;;;;;4970177;28;20081;-85
2023/11/26 13:30:55;;;;;;;0.20;0.13;;;;;;;;;;4954946;28;20097;-84
2023/11/26 13:33:21;;;;;;;0.20;0.10;;;;;;;;;;4951326;28;20696;-84
2023/11/26 13:35:49;;;;;;;0.20;0.10;;;;;;;;;;4948230;28;20411;-86
2023/11/26 13:38:15;;;;;;;0.20;0.00;;;;;;;;;;4957749;28;20708;-87
2023/11/26 13:40:42;;;;;;;0.20;0.10;;;;;;;;;;4953275;28;20111;-86
2023/11/26 13:43:09;;;;;;;0.20;0.00;;;;;;;;;;4968464;28;20069;-85
2023/11/26 13:45:36;;;;;;;0.20;0.00;;;;;;;;;;4967480;28;20042;-86
2023/11/26 13:48:11;;;;;;;0.20;0.10;;;;;;;;;;4955192;28;20034;-86
2023/11/26 13:50:40;;;;;;;0.20;0.00;;;;;;;;;;4953868;28;20049;-85
2023/11/26 13:55:58;;;;;;;0.20;0.00;;;;;;;;;;4968651;28;20043;-86
2023/11/26 13:58:24;;;;;;;0.20;0.08;;;;;;;;;;4949533;28;20062;-86
2023/11/26 14:01:11;;;;;;;0.20;0.00;;;;;;;;;;4951047;28;20064;-88
2023/11/26 14:03:43;;;;;;;0.20;0.00;;;;;;;;;;4983175;28;20047;-86
2023/11/26 14:06:11;;;;;;;0.20;0.17;;;;;;;;;;4969184;28;20047;-85
2023/11/26 14:08:38;;;;;;;0.20;0.00;;;;;;;;;;4968677;28;20093;-86
2023/11/26 14:11:04;;;;;;;0.20;0.10;;;;;;;;;;4951374;28;20043;-86
2023/11/26 14:13:31;;;;;;;0.20;0.00;;;;;;;;;;4953692;28;20066;-85
2023/11/26 14:15:57;;;;;;;0.20;0.05;;;;;;;;;;4957655;28;20057;-86
2023/11/26 14:18:26;;;;;;;0.20;0.00;;;;;;;;;;4969647;28;20101;-85
2023/11/26 14:20:53;;;;;;;0.20;0.10;;;;;;;;;;4954005;28;20092;-85
2023/11/26 14:23:21;;;;;;;0.20;0.00;;;;;;;;;;4953804;28;20046;-84
2023/11/26 14:26:18;;;;;;;0.20;0.10;;;;;;;;;;4954652;28;20071;-88
2023/11/26 14:28:44;;;;;;;0.20;0.00;;;;;;;;;;4927610;28;20057;-85
2023/11/26 14:31:11;;;;;;;0.50;0.20;;;;;;;;;;4945933;28;20082;-86
2023/11/26 14:37:39;;;;;;;0.20;0.10;;;;;;;;;;4899127;29;20097;-88
2023/11/26 14:40:17;;;;;;;0.20;0.10;;;;;;;;;;4907207;29;20052;-85
2023/11/26 14:43:27;;;;;;;0.20;0.03;;;;;;;;;;4932843;28;20054;-88
2023/11/26 14:45:56;;;;;;;0.20;0.10;;;;;;;;;;4920433;28;20062;-86
2023/11/26 14:48:25;;;;;;;0.20;0.10;;;;;;;;;;4967285;28;20038;-87
2023/11/26 14:50:51;;;;;;;0.20;0.00;;;;;;;;;;4951542;28;20065;-84
2023/11/26 14:53:17;;;;;;;0.20;0.10;;;;;;;;;;4948895;28;20046;-85
2023/11/26 14:55:43;;;;;;;0.20;0.10;;;;;;;;;;4950903;28;20034;-87
2023/11/26 14:58:09;;;;;;;0.20;0.00;;;;;;;;;;4954059;28;20049;-85
2023/11/26 15:00:35;;;;;;;0.20;0.00;;;;;;;;;;4952503;28;20113;-86
2023/11/26 15:03:01;;;;;;;0.20;0.00;;;;;;;;;;4951039;28;20046;-85
2023/11/26 15:05:27;;;;;;;0.20;0.10;;;;;;;;;;4951490;28;20039;-85
2023/11/26 15:07:53;;;;;;;0.20;0.00;;;;;;;;;;4952631;28;20048;-86
2023/11/26 15:10:19;;;;;;;0.20;0.10;;;;;;;;;;4979597;28;20419;-85
2023/11/26 15:12:47;;;;;;;0.20;0.10;;;;;;;;;;4950794;28;20035;-86
2023/11/26 15:15:14;;;;;;;0.20;0.10;;;;;;;;;;4982229;28;20062;-86
2023/11/26 15:17:42;;;;;;;0.20;0.08;;;;;;;;;;4969329;28;20043;-84
2023/11/26 15:20:11;;;;;;;0.40;0.38;;;;;;;;;;4969392;28;20075;-85
2023/11/26 15:22:41;;;;;;;0.20;0.10;;;;;;;;;;4978901;28;20126;-84
2023/11/26 15:25:14;;;;;;;0.20;0.08;;;;;;;;;;4955583;28;20074;-86